createdAt,value
2023-01-11T00:00:56.680Z,1.50
2023-01-11T00:03:23.804Z,1.10
2023-01-11T00:05:51.016Z,1.35
2023-01-11T00:08:19.405Z,2.00
2023-01-11T00:10:46.552Z,1.33
2023-01-11T00:13:14.542Z,1.33
2023-01-11T00:15:43.848Z,1.23
2023-01-11T00:18:11.432Z,1.02
2023-01-11T00:20:42.451Z,1.20
2023-01-11T00:23:09.682Z,1.75
2023-01-11T00:25:37.530Z,1.02
2023-01-11T00:28:05.153Z,1.35
2023-01-11T00:30:32.864Z,1.17
2023-01-11T00:33:01.245Z,1.35
2023-01-11T00:35:28.856Z,1.30
2023-01-11T00:37:56.052Z,1.15
2023-01-11T00:40:24.697Z,1.30
2023-01-11T00:43:10.641Z,1.30
2023-01-11T00:45:56.662Z,1.30
2023-01-11T00:48:23.851Z,1.55
2023-01-11T00:50:53.493Z,1.42
2023-01-11T00:53:20.651Z,1.00
2023-01-11T00:55:47.814Z,1.10
2023-01-11T00:58:15.866Z,1.40
2023-01-11T01:00:43.026Z,1.20
2023-01-11T01:03:10.234Z,1.20
2023-01-11T01:05:38.994Z,1.30
2023-01-11T01:08:06.183Z,1.00
2023-01-11T01:10:32.941Z,1.25
2023-01-11T01:13:18.173Z,1.10
2023-01-11T01:15:44.943Z,1.20
2023-01-11T01:18:11.774Z,0.93
2023-01-11T01:20:39.134Z,1.00
2023-01-11T01:23:06.086Z,0.90
2023-01-11T01:25:33.692Z,0.90
2023-01-11T01:28:00.794Z,1.08
2023-01-11T01:30:27.987Z,0.98
2023-01-11T01:32:55.127Z,0.70
2023-01-11T01:35:41.993Z,0.80
2023-01-11T01:38:09.172Z,1.20
2023-01-11T01:40:41.832Z,0.90
2023-01-11T01:43:17.047Z,1.10
2023-01-11T01:45:44.291Z,1.02
2023-01-11T01:48:13.632Z,1.13
2023-01-11T01:50:49.279Z,1.17
2023-01-11T01:53:22.285Z,1.13
2023-01-11T01:55:51.361Z,1.00
2023-01-11T01:58:20.148Z,0.93
2023-01-11T02:00:47.655Z,1.00
2023-01-11T02:03:17.670Z,1.23
2023-01-11T02:05:44.983Z,1.20
2023-01-11T02:08:17.373Z,0.98
2023-01-11T02:10:44.511Z,1.10
2023-01-11T02:13:14.472Z,0.93
2023-01-11T02:15:41.716Z,1.10
2023-01-11T02:18:12.997Z,1.00
2023-01-11T02:20:56.213Z,1.20
2023-01-11T02:23:49.752Z,1.20
2023-01-11T02:29:00.662Z,0.60
2023-01-11T02:31:27.781Z,0.88
2023-01-11T02:34:13.711Z,0.80
2023-01-11T02:36:59.115Z,1.25
2023-01-11T02:39:32.080Z,1.10
2023-01-11T02:42:17.747Z,0.90
2023-01-11T02:45:01.792Z,1.00
2023-01-11T02:47:34.966Z,1.15
2023-01-11T02:52:37.248Z,1.15
2023-01-11T02:55:05.530Z,1.10
2023-01-11T02:57:34.226Z,0.90
2023-01-11T03:00:01.991Z,1.33
2023-01-11T03:02:29.245Z,1.10
2023-01-11T03:04:56.489Z,1.23
2023-01-11T03:07:29.488Z,1.13
2023-01-11T03:10:05.746Z,1.02
2023-01-11T03:12:51.931Z,1.20
2023-01-11T03:15:22.123Z,1.02
2023-01-11T03:18:04.606Z,0.90
2023-01-11T03:20:33.621Z,0.80
2023-01-11T03:23:19.452Z,0.90
2023-01-11T03:25:58.667Z,1.05
2023-01-11T03:28:34.980Z,1.00
2023-01-11T03:31:05.733Z,1.10
2023-01-11T03:33:32.921Z,0.80
2023-01-11T03:36:07.497Z,1.00
2023-01-11T03:38:38.526Z,0.95
2023-01-11T03:41:07.588Z,1.00
2023-01-11T03:43:36.191Z,1.00
2023-01-11T03:46:12.967Z,0.95
2023-01-11T03:48:42.916Z,1.20
2023-01-11T03:51:12.988Z,1.05
2023-01-11T03:53:40.906Z,1.02
2023-01-11T03:56:11.191Z,1.02
2023-01-11T03:58:38.347Z,1.20
2023-01-11T04:01:05.881Z,1.48
2023-01-11T04:03:33.061Z,1.10
2023-01-11T04:06:03.610Z,1.20
2023-01-11T04:08:33.604Z,1.38
2023-01-11T04:11:00.873Z,1.10
2023-01-11T04:13:28.005Z,1.27
2023-01-11T04:15:55.210Z,0.90
2023-01-11T04:18:22.603Z,0.93
2023-01-11T04:20:49.803Z,1.13
2023-01-11T04:23:16.927Z,1.30
2023-01-11T04:25:44.040Z,1.17
2023-01-11T04:28:11.152Z,0.88
2023-01-11T04:30:38.319Z,1.20
2023-01-11T04:33:05.428Z,1.17
2023-01-11T04:35:32.607Z,1.10
2023-01-11T04:37:59.840Z,1.10
2023-01-11T04:40:26.982Z,0.90
2023-01-11T04:42:54.170Z,1.00
2023-01-11T04:45:22.114Z,1.10
2023-01-11T04:47:54.683Z,1.00
2023-01-11T04:50:21.892Z,1.02
2023-01-11T04:52:49.131Z,0.93
2023-01-11T04:55:16.327Z,0.88
2023-01-11T04:57:47.168Z,0.90
2023-01-11T05:00:15.944Z,0.88
2023-01-11T05:02:43.344Z,0.90
2023-01-11T05:05:11.464Z,0.95
2023-01-11T05:07:39.309Z,0.70
2023-01-11T05:10:06.770Z,0.75
2023-01-11T05:12:33.934Z,0.60
2023-01-11T05:15:01.156Z,0.90
2023-01-11T05:17:28.299Z,0.93
2023-01-11T05:19:55.453Z,0.73
2023-01-11T05:22:22.744Z,0.70
2023-01-11T05:24:49.904Z,0.80
2023-01-11T05:27:17.029Z,1.00
2023-01-11T05:29:44.239Z,0.98
2023-01-11T05:32:12.316Z,0.80
2023-01-11T05:34:39.552Z,0.93
2023-01-11T05:37:06.702Z,0.80
2023-01-11T05:39:34.340Z,0.90
2023-01-11T05:42:01.587Z,0.80
2023-01-11T05:44:47.430Z,0.80
2023-01-11T05:47:14.597Z,0.60
2023-01-11T05:49:41.776Z,0.98
2023-01-11T05:52:08.920Z,0.80
2023-01-11T05:54:36.083Z,0.73
2023-01-11T05:57:03.242Z,0.73
2023-01-11T05:59:32.144Z,1.08
2023-01-11T06:01:59.592Z,1.08
2023-01-11T06:04:27.534Z,1.00
2023-01-11T06:06:54.781Z,0.98
2023-01-11T06:09:22.117Z,0.80
2023-01-11T06:11:50.555Z,0.77
2023-01-11T06:14:17.889Z,1.10
2023-01-11T06:16:45.100Z,1.33
2023-01-11T06:19:12.232Z,1.00
2023-01-11T06:21:39.885Z,1.25
2023-01-11T06:24:07.451Z,1.10
2023-01-11T06:26:34.577Z,1.08
2023-01-11T06:29:01.715Z,1.02
2023-01-11T06:31:28.881Z,1.23
2023-01-11T06:33:56.019Z,1.23
2023-01-11T06:36:23.180Z,1.13
2023-01-11T06:38:50.290Z,1.30
2023-01-11T06:41:17.423Z,1.10
2023-01-11T06:43:44.595Z,1.13
2023-01-11T06:46:13.208Z,0.90
2023-01-11T06:48:40.387Z,1.10
2023-01-11T06:51:07.658Z,1.13
2023-01-11T06:53:35.052Z,1.10
2023-01-11T06:56:02.189Z,1.30
2023-01-11T06:58:29.376Z,1.33
2023-01-11T07:00:57.561Z,1.70
2023-01-11T07:03:26.110Z,1.75
2023-01-11T07:05:54.444Z,1.98
2023-01-11T07:08:21.649Z,1.83
2023-01-11T07:10:48.892Z,1.90
2023-01-11T07:13:17.273Z,1.90
2023-01-11T07:15:45.369Z,1.80
2023-01-11T07:18:12.748Z,1.50
2023-01-11T07:20:39.960Z,2.20
2023-01-11T07:23:11.044Z,2.40
2023-01-11T07:25:38.234Z,1.73
2023-01-11T07:28:07.085Z,1.75
2023-01-11T07:30:47.897Z,1.70
2023-01-11T07:33:22.461Z,2.25
2023-01-11T07:35:50.033Z,2.20
2023-01-11T07:38:17.470Z,2.05
2023-01-11T07:40:44.692Z,2.55
2023-01-11T07:43:18.257Z,2.35
2023-01-11T07:45:49.100Z,2.20
2023-01-11T07:48:20.874Z,2.15
2023-01-11T07:50:48.832Z,2.05
2023-01-11T07:53:16.088Z,2.47
2023-01-11T07:55:43.582Z,2.22
2023-01-11T07:58:14.536Z,4.25
2023-01-11T08:00:41.817Z,3.75
2023-01-11T08:03:09.248Z,4.82
2023-01-11T08:05:36.467Z,5.97
2023-01-11T08:08:03.825Z,9.60
2023-01-11T08:10:31.717Z,14.30
2023-01-11T08:13:17.787Z,4.45
2023-01-11T08:15:46.313Z,10.93
2023-01-11T08:18:13.563Z,230.45
2023-01-11T08:20:41.023Z,8.32
2023-01-11T08:23:09.135Z,7.25
2023-01-11T08:25:36.473Z,8.32
2023-01-11T08:28:04.893Z,3.35
2023-01-11T08:30:32.178Z,4.10
2023-01-11T08:33:01.224Z,2.97
2023-01-11T08:35:28.368Z,3.17
2023-01-11T08:37:55.567Z,3.30
2023-01-11T08:40:24.182Z,2.83
2023-01-11T08:42:55.012Z,3.40
2023-01-11T08:45:22.259Z,4.00
2023-01-11T08:47:50.837Z,3.47
2023-01-11T08:50:18.721Z,3.53
2023-01-11T08:52:46.641Z,3.78
2023-01-11T08:55:13.864Z,4.45
2023-01-11T08:57:41.022Z,3.85
2023-01-11T09:00:08.804Z,3.70
2023-01-11T09:02:36.092Z,3.83
2023-01-11T09:05:03.301Z,3.92
2023-01-11T09:07:30.440Z,4.28
2023-01-11T09:09:57.545Z,4.30
2023-01-11T09:12:25.278Z,4.20
2023-01-11T09:14:52.388Z,3.83
2023-01-11T09:17:19.526Z,4.22
2023-01-11T09:19:46.746Z,4.13
2023-01-11T09:22:13.895Z,4.88
2023-01-11T09:24:41.064Z,4.90
2023-01-11T09:27:08.274Z,4.50
2023-01-11T09:29:37.275Z,4.95
2023-01-11T09:32:05.047Z,6.45
2023-01-11T09:34:32.201Z,6.80
2023-01-11T09:37:02.674Z,6.82
2023-01-11T09:39:29.877Z,6.88
2023-01-11T09:42:11.201Z,7.38
2023-01-11T09:44:43.176Z,185.38
2023-01-11T09:47:16.512Z,55.15
2023-01-11T09:49:50.941Z,11.00
2023-01-11T09:52:36.163Z,7.95
2023-01-11T09:55:04.022Z,7.50
2023-01-11T09:57:34.160Z,12.43
2023-01-11T10:00:09.924Z,104.63
2023-01-11T10:02:37.046Z,784.58
2023-01-11T10:05:06.124Z,781.88
2023-01-11T10:07:34.568Z,740.90
2023-01-11T10:18:32.894Z,11.98
2023-01-11T10:19:24.557Z,498.27
2023-01-11T10:22:04.794Z,9.20
2023-01-11T10:24:52.808Z,846.65
2023-01-11T10:27:26.678Z,999.90
2023-01-11T10:30:13.626Z,12.57
2023-01-11T10:33:06.545Z,310.85
2023-01-11T10:36:10.952Z,950.35
2023-01-11T10:39:27.270Z,9.52
2023-01-11T10:42:07.699Z,8.85
2023-01-11T10:44:40.907Z,11.93
2023-01-11T10:47:12.360Z,21.55
2023-01-11T10:50:09.000Z,53.13
2023-01-11T10:52:41.565Z,287.58
2023-01-11T10:55:13.312Z,651.00
2023-01-11T10:58:09.376Z,741.90
2023-01-11T11:00:51.429Z,671.05
2023-01-11T11:03:32.036Z,596.95
2023-01-11T11:06:05.321Z,221.18
2023-01-11T11:08:59.016Z,109.65
2023-01-11T11:11:36.255Z,56.58
2023-01-11T11:14:13.217Z,851.38
2023-01-11T11:16:52.311Z,866.40
2023-01-11T11:19:22.516Z,868.13
2023-01-11T11:21:52.306Z,870.30
2023-01-11T11:24:28.071Z,972.72
2023-01-11T11:26:59.006Z,32.45
2023-01-11T11:29:30.582Z,6.43
2023-01-11T11:31:59.472Z,15.80
2023-01-11T11:34:27.495Z,8.05
2023-01-11T11:36:55.370Z,18.25
2023-01-11T11:39:29.948Z,7.95
2023-01-11T11:41:58.203Z,8.48
2023-01-11T11:44:30.941Z,8.80
2023-01-11T11:47:04.311Z,846.50
2023-01-11T11:49:32.944Z,960.13
2023-01-11T11:52:03.813Z,971.55
2023-01-11T11:54:33.663Z,855.35
2023-01-11T11:57:12.565Z,871.10
2023-01-11T11:59:40.027Z,967.65
2023-01-11T12:02:11.947Z,964.85
2023-01-11T12:04:49.844Z,969.63
2023-01-11T12:07:19.438Z,76.75
2023-01-11T12:10:07.662Z,33.85
2023-01-11T12:12:34.808Z,32.88
2023-01-11T12:15:07.505Z,5.68
2023-01-11T12:17:34.688Z,6.57
2023-01-11T12:20:01.799Z,228.00
2023-01-11T12:22:29.232Z,23.35
2023-01-11T12:25:05.834Z,42.30
2023-01-11T12:27:42.221Z,72.32
2023-01-11T12:30:16.382Z,55.47
2023-01-11T12:32:44.921Z,71.40
2023-01-11T12:35:15.052Z,92.30
2023-01-11T12:38:00.332Z,264.83
2023-01-11T12:40:45.512Z,890.97
2023-01-11T12:43:16.066Z,723.33
2023-01-11T12:45:49.423Z,15.77
2023-01-11T12:48:23.194Z,472.90
2023-01-11T12:51:01.113Z,460.52
2023-01-11T12:53:28.251Z,712.08
2023-01-11T12:56:05.532Z,93.78
2023-01-11T12:58:53.091Z,155.20
2023-01-11T13:01:23.224Z,202.98
2023-01-11T13:04:12.149Z,331.33
2023-01-11T13:06:42.817Z,313.75
2023-01-11T13:09:25.647Z,834.40
2023-01-11T13:12:11.247Z,937.92
2023-01-11T13:14:50.810Z,830.60
2023-01-11T13:17:38.364Z,845.45
2023-01-11T13:20:24.213Z,858.40
2023-01-11T13:22:53.863Z,964.30
2023-01-11T13:25:28.834Z,966.22
2023-01-11T13:27:57.816Z,970.92
2023-01-11T13:30:28.953Z,859.33
2023-01-11T13:33:02.360Z,857.95
2023-01-11T13:35:43.192Z,964.33
2023-01-11T13:38:26.633Z,856.53
2023-01-11T13:40:55.648Z,963.80
2023-01-11T13:43:43.089Z,858.80
2023-01-11T13:46:18.799Z,927.70
2023-01-11T13:49:05.968Z,828.95
2023-01-11T13:51:43.695Z,921.88
2023-01-11T13:54:13.921Z,932.30
2023-01-11T13:56:49.003Z,821.15
2023-01-11T13:59:20.753Z,650.28
2023-01-11T14:01:53.850Z,900.95
2023-01-11T14:06:51.582Z,902.60
2023-01-11T14:09:18.795Z,794.45
2023-01-11T14:12:01.278Z,674.67
2023-01-11T14:14:45.680Z,234.43
2023-01-11T14:17:15.979Z,172.40
2023-01-11T14:20:07.513Z,205.77
2023-01-11T14:22:34.840Z,135.90
2023-01-11T14:25:02.071Z,219.60
2023-01-11T14:27:48.207Z,310.67
2023-01-11T14:30:18.354Z,201.30
2023-01-11T14:33:04.169Z,211.35
2023-01-11T14:35:49.616Z,452.38
2023-01-11T14:38:38.382Z,218.95
2023-01-11T14:41:24.216Z,251.13
2023-01-11T14:43:59.565Z,173.05
2023-01-11T14:46:49.049Z,185.57
2023-01-11T14:49:20.194Z,210.30
2023-01-11T14:51:59.659Z,217.80
2023-01-11T14:54:28.704Z,118.40
2023-01-11T14:56:56.960Z,330.67
2023-01-11T14:59:40.333Z,712.72
2023-01-11T15:02:10.573Z,838.60
2023-01-11T15:04:55.920Z,820.83
2023-01-11T15:07:32.422Z,954.45
2023-01-11T15:10:00.633Z,834.42
2023-01-11T15:12:34.275Z,760.75
2023-01-11T15:15:15.212Z,749.60
2023-01-11T15:18:01.308Z,808.78
2023-01-11T15:20:28.859Z,812.28
2023-01-11T15:23:01.148Z,922.38
2023-01-11T15:25:33.560Z,912.63
2023-01-11T15:28:02.906Z,824.28
2023-01-11T15:30:30.095Z,818.70
2023-01-11T15:33:16.212Z,925.47
2023-01-11T15:36:11.581Z,939.67
2023-01-11T15:38:58.968Z,823.00
2023-01-11T15:42:04.809Z,823.45
2023-01-11T15:44:47.239Z,827.45
2023-01-11T15:47:26.729Z,957.80
2023-01-11T15:50:12.386Z,513.58
2023-01-11T15:52:53.543Z,828.45
2023-01-11T15:55:33.040Z,824.97
2023-01-11T15:58:19.301Z,557.65
2023-01-11T16:01:41.809Z,838.80
2023-01-11T16:04:27.499Z,816.15
2023-01-11T16:06:56.359Z,937.95
2023-01-11T16:09:28.697Z,830.63
2023-01-11T16:12:00.517Z,966.35
2023-01-11T16:14:30.739Z,834.15
2023-01-11T16:16:58.545Z,954.58
2023-01-11T16:19:27.935Z,947.33
2023-01-11T16:21:56.839Z,965.40
2023-01-11T16:24:26.899Z,951.03
2023-01-11T16:26:55.909Z,941.20
2023-01-11T16:29:27.864Z,832.85
2023-01-11T16:31:56.979Z,950.38
2023-01-11T16:34:24.723Z,946.22
2023-01-11T16:36:51.954Z,839.35
2023-01-11T16:39:21.927Z,950.75
2023-01-11T16:42:07.553Z,820.60
2023-01-11T16:44:41.595Z,818.22
2023-01-11T16:47:11.943Z,825.97
2023-01-11T16:49:40.094Z,934.83
2023-01-11T16:52:25.846Z,822.08
2023-01-11T16:54:54.602Z,929.03
2023-01-11T16:57:22.961Z,942.63
2023-01-11T17:00:07.393Z,940.95
2023-01-11T17:02:37.985Z,813.35
2023-01-11T17:05:18.540Z,933.28
2023-01-11T17:07:45.784Z,928.95
2023-01-11T17:10:17.695Z,678.72
2023-01-11T17:12:46.290Z,487.50
2023-01-11T17:15:24.406Z,578.45
2023-01-11T17:17:51.743Z,792.92
2023-01-11T17:20:23.356Z,927.72
2023-01-11T17:22:53.697Z,928.78
2023-01-11T17:25:24.785Z,815.65
2023-01-11T17:27:59.425Z,813.63
2023-01-11T17:30:27.668Z,744.60
2023-01-11T17:32:56.532Z,864.08
2023-01-11T17:35:25.331Z,818.40
2023-01-11T17:37:56.133Z,483.85
2023-01-11T17:40:30.875Z,441.80
2023-01-11T17:43:22.213Z,368.75
2023-01-11T17:45:56.389Z,427.02
2023-01-11T17:48:25.212Z,770.85
2023-01-11T17:51:02.541Z,355.08
2023-01-11T17:53:40.297Z,889.38
2023-01-11T17:56:13.989Z,681.05
2023-01-11T17:58:41.235Z,924.10
2023-01-11T18:01:08.546Z,820.63
2023-01-11T18:03:43.132Z,770.60
2023-01-11T18:06:12.575Z,743.90
2023-01-11T18:08:46.734Z,933.42
2023-01-11T18:11:21.490Z,801.75
2023-01-11T18:13:51.545Z,926.90
2023-01-11T18:16:19.606Z,798.33
2023-01-11T18:18:50.122Z,246.35
2023-01-11T18:21:26.341Z,268.80
2023-01-11T18:24:12.244Z,217.45
2023-01-11T18:26:40.503Z,358.25
2023-01-11T18:29:18.507Z,366.83
2023-01-11T18:31:45.696Z,247.10
2023-01-11T18:34:12.951Z,447.15
2023-01-11T18:36:40.076Z,572.38
2023-01-11T18:39:12.262Z,693.65
2023-01-11T18:41:58.468Z,791.80
2023-01-11T18:44:25.640Z,702.65
2023-01-11T18:46:52.823Z,361.48
2023-01-11T18:49:19.946Z,317.92
2023-01-11T18:51:47.143Z,236.70
2023-01-11T18:54:18.245Z,365.23
2023-01-11T18:56:45.454Z,263.10
2023-01-11T18:59:12.687Z,326.77
2023-01-11T19:01:54.552Z,380.15
2023-01-11T19:04:25.940Z,241.65
2023-01-11T19:06:53.226Z,250.60
2023-01-11T19:09:20.400Z,368.67
2023-01-11T19:11:47.631Z,308.45
2023-01-11T19:14:14.837Z,508.85
2023-01-11T19:16:41.979Z,465.90
2023-01-11T19:19:09.170Z,310.58
2023-01-11T19:21:36.368Z,266.77
2023-01-11T19:24:03.565Z,326.42
2023-01-11T19:26:30.716Z,335.65
2023-01-11T19:28:58.259Z,361.70
2023-01-11T19:31:25.484Z,374.83
2023-01-11T19:33:52.811Z,302.42
2023-01-11T19:36:20.007Z,304.13
2023-01-11T19:38:47.239Z,354.40
2023-01-11T19:41:16.635Z,297.90
2023-01-11T19:43:47.283Z,355.42
2023-01-11T19:46:19.585Z,383.73
2023-01-11T19:48:53.284Z,275.27
2023-01-11T19:51:20.496Z,342.05
2023-01-11T19:53:47.648Z,261.02
2023-01-11T19:56:14.829Z,301.65
2023-01-11T19:58:41.976Z,262.67
2023-01-11T20:01:10.782Z,256.80
2023-01-11T20:03:40.891Z,431.83
2023-01-11T20:06:09.974Z,236.07
2023-01-11T20:08:38.809Z,247.90
2023-01-11T20:11:06.842Z,283.65
2023-01-11T20:13:34.380Z,239.55
2023-01-11T20:16:05.881Z,309.00
2023-01-11T20:18:33.501Z,224.73
2023-01-11T20:21:00.883Z,246.27
2023-01-11T20:23:30.450Z,283.02
2023-01-11T20:26:01.556Z,281.02
2023-01-11T20:28:29.327Z,233.02
2023-01-11T20:31:00.691Z,218.68
2023-01-11T20:33:29.241Z,295.77
2023-01-11T20:35:56.374Z,316.58
2023-01-11T20:38:23.606Z,251.23
2023-01-11T20:40:50.741Z,204.20
2023-01-11T20:43:17.954Z,201.10
2023-01-11T20:45:54.702Z,180.75
2023-01-11T20:48:21.947Z,184.80
2023-01-11T20:50:49.143Z,160.15
2023-01-11T20:53:16.381Z,230.02
2023-01-11T20:55:43.557Z,229.27
2023-01-11T20:58:11.391Z,208.63
2023-01-11T21:00:38.636Z,163.57
2023-01-11T21:03:05.847Z,167.50
2023-01-11T21:05:33.106Z,203.50
2023-01-11T21:08:00.289Z,245.35
2023-01-11T21:10:27.516Z,159.68
2023-01-11T21:12:56.610Z,203.70
2023-01-11T21:15:24.278Z,215.50
2023-01-11T21:17:51.482Z,130.40
2023-01-11T21:20:18.655Z,143.25
2023-01-11T21:22:45.884Z,142.68
2023-01-11T21:25:13.045Z,192.82
2023-01-11T21:27:40.194Z,166.20
2023-01-11T21:30:07.522Z,182.63
2023-01-11T21:32:34.744Z,228.65
2023-01-11T21:35:01.952Z,183.75
2023-01-11T21:37:30.068Z,225.15
2023-01-11T21:39:57.291Z,251.07
2023-01-11T21:42:24.527Z,216.68
2023-01-11T21:44:51.715Z,174.38
2023-01-11T21:47:19.791Z,230.38
2023-01-11T21:49:46.969Z,212.38
2023-01-11T21:52:14.179Z,165.75
2023-01-11T21:54:41.386Z,158.73
2023-01-11T21:57:08.611Z,177.43
2023-01-11T21:59:35.859Z,235.60
2023-01-11T22:02:02.998Z,188.52
2023-01-11T22:04:30.183Z,265.20
2023-01-11T22:06:57.398Z,208.77
2023-01-11T22:09:26.509Z,206.18
2023-01-11T22:11:53.755Z,158.70
2023-01-11T22:14:21.009Z,211.57
2023-01-11T22:16:48.270Z,172.20
2023-01-11T22:19:15.863Z,220.27
2023-01-11T22:21:43.540Z,207.73
2023-01-11T22:24:15.476Z,175.15
2023-01-11T22:26:42.710Z,175.65
2023-01-11T22:29:16.407Z,186.95
2023-01-11T22:31:52.644Z,180.82
2023-01-11T22:34:19.993Z,239.50
2023-01-11T22:36:47.555Z,206.07
2023-01-11T22:39:15.370Z,221.18
2023-01-11T22:41:45.274Z,246.82
2023-01-11T22:44:12.488Z,205.60
2023-01-11T22:46:39.641Z,219.15
2023-01-11T22:49:06.904Z,216.73
2023-01-11T22:51:34.251Z,367.50
2023-01-11T22:54:01.472Z,272.45
2023-01-11T22:56:29.562Z,208.07
2023-01-11T22:58:57.546Z,235.70
2023-01-11T23:01:28.929Z,280.27
2023-01-11T23:03:56.757Z,280.30
2023-01-11T23:06:25.486Z,278.15
2023-01-11T23:08:52.679Z,208.48
2023-01-11T23:11:39.862Z,277.17
2023-01-11T23:14:11.700Z,275.35
2023-01-11T23:16:39.155Z,300.42
2023-01-11T23:19:07.017Z,300.20
2023-01-11T23:21:34.360Z,288.67
2023-01-11T23:24:01.933Z,257.13
2023-01-11T23:26:29.297Z,358.88
2023-01-11T23:28:56.460Z,294.85
2023-01-11T23:31:24.900Z,253.57
2023-01-11T23:33:53.967Z,209.30
2023-01-11T23:36:22.098Z,190.05
2023-01-11T23:38:49.546Z,210.95
2023-01-11T23:41:36.684Z,306.30
2023-01-11T23:44:09.093Z,206.70
2023-01-11T23:46:54.989Z,217.13
2023-01-11T23:49:22.134Z,167.68
2023-01-11T23:51:49.311Z,214.95
2023-01-11T23:54:16.454Z,150.57
2023-01-11T23:56:43.617Z,165.50
2023-01-11T23:59:10.727Z,254.45
